Time;durP1;ratioP1;P1;durP2;ratioP2;P2;SDS_P1;SDS_P2;PMS_P1;PMS_P2;Temp;Humidity;BMP_temperature;BMP_pressure;BME280_temperature;BME280_humidity;BME280_pressure;Samples;Min_cycle;Max_cycle;Signal;HPM_P1;HPM_P2
2022/07/05 00:00:04;;;;;;;15.18;5.03;;;16.90;99.90;;;;;;5053270;28;20021;-66
2022/07/05 00:02:30;;;;;;;9.95;4.07;;;16.80;99.90;;;;;;5054713;28;20159;-65
2022/07/05 00:04:56;;;;;;;5.68;3.00;;;16.80;99.90;;;;;;5057369;28;20115;-64
2022/07/05 00:07:22;;;;;;;14.00;5.32;;;16.70;99.90;;;;;;5075420;28;20032;-63
2022/07/05 00:09:57;;;;;;;11.98;4.30;;;16.70;99.90;;;;;;5060286;28;20469;-65
2022/07/05 00:12:26;;;;;;;13.57;4.68;;;16.60;99.90;;;;;;5055819;28;20028;-64
2022/07/05 00:14:52;;;;;;;19.15;7.05;;;16.60;99.90;;;;;;5064130;28;20189;-65
2022/07/05 00:17:18;;;;;;;14.40;5.65;;;16.50;99.90;;;;;;5057073;28;20528;-64
2022/07/05 00:19:44;;;;;;;13.15;4.43;;;16.40;99.90;;;;;;5054938;28;20143;-68
2022/07/05 00:22:10;;;;;;;17.88;6.55;;;16.30;99.90;;;;;;5055485;28;20024;-63
2022/07/05 00:24:35;;;;;;;40.15;17.23;;;16.20;99.90;;;;;;5054010;28;20082;-64
2022/07/05 00:27:01;;;;;;;50.80;22.85;;;16.20;99.90;;;;;;5054848;28;20029;-68
2022/07/05 00:29:27;;;;;;;41.95;17.17;;;16.10;99.90;;;;;;5051975;28;20522;-67
2022/07/05 00:31:53;;;;;;;16.00;5.75;;;16.00;99.90;;;;;;5067359;28;20092;-64
2022/07/05 00:34:19;;;;;;;16.83;6.60;;;15.90;99.90;;;;;;5053324;28;20045;-64
2022/07/05 00:36:44;;;;;;;16.42;6.30;;;15.90;99.90;;;;;;5065460;28;20051;-65
2022/07/05 00:39:10;;;;;;;15.95;5.72;;;15.80;99.90;;;;;;5074663;28;20047;-64
2022/07/05 00:41:36;;;;;;;14.45;4.93;;;15.80;99.90;;;;;;5075320;28;20478;-63
2022/07/05 00:44:05;;;;;;;15.90;6.53;;;15.70;99.90;;;;;;5075101;28;20027;-64
2022/07/05 00:46:31;;;;;;;13.70;4.85;;;15.70;99.90;;;;;;5074852;28;20445;-67
2022/07/05 00:48:58;;;;;;;10.10;4.30;;;15.70;99.90;;;;;;5064236;28;20349;-64
2022/07/05 00:51:28;;;;;;;8.48;3.75;;;15.60;99.90;;;;;;5054777;28;20105;-64
2022/07/05 00:53:53;;;;;;;10.18;3.80;;;15.60;99.90;;;;;;5055218;28;20049;-66
2022/07/05 00:56:20;;;;;;;10.02;4.60;;;15.60;99.90;;;;;;5054371;28;20078;-64
2022/07/05 00:58:45;;;;;;;6.93;3.75;;;15.60;99.90;;;;;;5054627;28;20013;-67
2022/07/05 01:01:12;;;;;;;11.05;4.60;;;15.60;99.90;;;;;;5054430;28;20378;-66
2022/07/05 01:03:38;;;;;;;14.05;5.93;;;15.60;99.90;;;;;;5054498;28;20029;-64
2022/07/05 01:06:09;;;;;;;10.85;4.53;;;15.50;99.90;;;;;;5054591;28;20025;-65
2022/07/05 01:08:37;;;;;;;12.93;4.55;;;15.50;99.90;;;;;;5054870;28;20473;-66
2022/07/05 01:11:03;;;;;;;8.18;4.13;;;15.50;99.90;;;;;;5054701;28;20071;-64
2022/07/05 01:13:30;;;;;;;10.90;5.07;;;15.50;99.90;;;;;;5054928;28;20402;-66
2022/07/05 01:15:55;;;;;;;8.48;4.50;;;15.50;99.90;;;;;;5054143;28;20029;-64
2022/07/05 01:18:22;;;;;;;13.43;5.45;;;15.50;99.90;;;;;;5054445;28;20104;-64
2022/07/05 01:20:48;;;;;;;8.48;3.85;;;15.50;99.90;;;;;;5054042;28;20023;-64
2022/07/05 01:23:14;;;;;;;8.38;3.63;;;15.50;99.90;;;;;;5054189;28;20021;-63
2022/07/05 01:25:40;;;;;;;8.93;3.78;;;15.50;99.90;;;;;;5053813;28;20120;-65
2022/07/05 01:28:06;;;;;;;7.68;3.72;;;15.60;99.90;;;;;;5054027;28;20433;-65
2022/07/05 01:30:34;;;;;;;7.35;3.92;;;15.60;99.90;;;;;;5054228;28;20104;-63
2022/07/05 01:33:00;;;;;;;15.85;4.88;;;15.60;99.90;;;;;;5052323;28;20384;-67
2022/07/05 01:35:25;;;;;;;10.98;4.82;;;15.60;99.90;;;;;;5053790;28;20028;-64
2022/07/05 01:37:52;;;;;;;12.15;4.28;;;15.60;99.90;;;;;;5053774;28;20016;-64
2022/07/05 01:40:19;;;;;;;7.90;3.65;;;15.60;99.90;;;;;;5054057;28;20096;-65
2022/07/05 01:42:46;;;;;;;10.48;4.63;;;15.60;99.90;;;;;;5052628;28;20070;-65
2022/07/05 01:45:12;;;;;;;11.23;4.05;;;15.60;99.90;;;;;;5058384;28;20454;-64
2022/07/05 01:47:45;;;;;;;9.15;3.25;;;15.60;99.90;;;;;;5073758;28;20068;-65
2022/07/05 01:50:15;;;;;;;8.93;3.30;;;15.70;99.90;;;;;;5071641;28;20021;-66
2022/07/05 01:52:43;;;;;;;7.78;3.35;;;15.60;99.90;;;;;;5054091;28;20031;-67
2022/07/05 01:55:09;;;;;;;5.80;3.22;;;15.70;99.90;;;;;;5053446;28;20136;-65
2022/07/05 01:57:35;;;;;;;11.57;4.10;;;15.70;99.90;;;;;;5052837;28;20108;-66
2022/07/05 02:00:01;;;;;;;10.65;3.67;;;15.70;99.90;;;;;;5052607;28;20021;-67
2022/07/05 02:02:26;;;;;;;9.82;3.10;;;15.80;99.90;;;;;;5062585;28;20107;-67
2022/07/05 02:04:52;;;;;;;8.52;2.63;;;15.80;99.90;;;;;;5055713;28;20028;-64
2022/07/05 02:07:18;;;;;;;5.95;2.75;;;15.80;99.90;;;;;;5052566;28;20037;-64
2022/07/05 02:09:43;;;;;;;8.32;3.47;;;15.90;99.90;;;;;;5051970;28;20017;-64
2022/07/05 02:12:09;;;;;;;8.00;3.17;;;15.90;99.90;;;;;;5052649;28;20025;-64
2022/07/05 02:14:35;;;;;;;9.95;4.03;;;15.90;99.90;;;;;;5052840;28;20040;-64
2022/07/05 02:17:01;;;;;;;9.20;3.53;;;15.90;99.90;;;;;;5052263;28;20032;-66
2022/07/05 02:19:27;;;;;;;10.88;3.42;;;15.90;99.90;;;;;;5052128;28;20032;-64
2022/07/05 02:21:53;;;;;;;10.70;4.20;;;15.90;99.90;;;;;;5052764;28;20029;-66
2022/07/05 02:24:20;;;;;;;7.40;2.88;;;15.90;99.90;;;;;;5052440;28;20028;-63
2022/07/05 02:26:46;;;;;;;6.80;2.45;;;15.90;99.90;;;;;;5052604;28;20033;-68
2022/07/05 02:29:11;;;;;;;9.20;3.10;;;16.00;99.90;;;;;;5052689;28;20024;-65
2022/07/05 02:31:37;;;;;;;7.13;2.90;;;16.00;99.90;;;;;;5053263;28;20025;-65
2022/07/05 02:34:02;;;;;;;9.55;3.30;;;16.00;99.90;;;;;;5053058;28;20040;-63
2022/07/05 02:36:28;;;;;;;7.40;2.80;;;16.00;99.90;;;;;;5053133;28;20063;-63
2022/07/05 02:38:53;;;;;;;10.13;3.80;;;16.00;99.90;;;;;;5051607;28;20455;-64
2022/07/05 02:41:19;;;;;;;6.70;2.60;;;16.10;99.90;;;;;;5052804;28;20036;-65
2022/07/05 02:43:45;;;;;;;8.60;3.72;;;16.10;99.90;;;;;;5052941;28;20025;-64
2022/07/05 02:46:10;;;;;;;6.45;2.60;;;16.10;99.90;;;;;;5052841;28;20047;-65
2022/07/05 02:48:37;;;;;;;4.25;2.42;;;16.10;99.90;;;;;;5054513;28;20044;-64
2022/07/05 02:51:03;;;;;;;11.25;4.30;;;16.10;99.90;;;;;;5066407;28;20107;-63
2022/07/05 02:53:29;;;;;;;8.95;2.75;;;16.10;99.90;;;;;;5060267;28;20484;-66
2022/07/05 02:55:55;;;;;;;6.75;3.40;;;16.10;99.90;;;;;;5054375;28;20159;-64
2022/07/05 02:58:21;;;;;;;7.38;3.17;;;16.10;99.90;;;;;;5062757;28;20139;-65
2022/07/05 03:00:48;;;;;;;6.05;2.63;;;16.10;99.90;;;;;;5056450;28;20128;-67
2022/07/05 03:03:14;;;;;;;7.55;3.35;;;16.00;99.90;;;;;;5064001;28;20025;-64
2022/07/05 03:05:40;;;;;;;9.52;3.60;;;16.00;99.90;;;;;;5056285;28;20020;-66
2022/07/05 03:08:06;;;;;;;4.28;2.00;;;16.00;99.90;;;;;;5052581;28;20096;-63
2022/07/05 03:10:33;;;;;;;12.02;3.33;;;16.00;99.90;;;;;;5052199;28;20057;-63
2022/07/05 03:12:58;;;;;;;5.68;2.20;;;16.00;99.90;;;;;;5051704;28;20422;-64
2022/07/05 03:15:24;;;;;;;7.70;2.60;;;16.00;99.90;;;;;;5050006;28;20067;-66
2022/07/05 03:17:50;;;;;;;4.78;2.40;;;15.90;99.90;;;;;;5033500;28;20025;-68
2022/07/05 03:20:16;;;;;;;5.55;2.90;;;15.90;99.90;;;;;;5044286;28;20363;-64
2022/07/05 03:22:41;;;;;;;10.30;3.15;;;15.80;99.90;;;;;;5052447;28;20024;-65
2022/07/05 03:25:07;;;;;;;7.55;2.75;;;15.80;99.90;;;;;;5051579;28;20035;-66
2022/07/05 03:27:33;;;;;;;4.72;2.45;;;15.80;99.90;;;;;;5051478;28;20029;-64
2022/07/05 03:29:59;;;;;;;5.65;2.67;;;15.80;99.90;;;;;;5051086;28;20354;-65
2022/07/05 03:32:24;;;;;;;6.30;2.55;;;15.80;99.90;;;;;;5051670;28;20041;-66
2022/07/05 03:34:50;;;;;;;9.93;3.35;;;15.80;99.90;;;;;;5052509;28;20344;-63
2022/07/05 03:37:15;;;;;;;9.80;3.50;;;15.70;99.90;;;;;;5052190;28;20408;-66
2022/07/05 03:39:41;;;;;;;5.28;2.50;;;15.80;99.90;;;;;;5052121;28;20525;-64
2022/07/05 03:42:06;;;;;;;9.27;3.53;;;15.80;99.90;;;;;;5050853;28;20033;-63
2022/07/05 03:44:33;;;;;;;11.85;3.97;;;15.90;99.90;;;;;;5048245;28;20032;-64
2022/07/05 03:46:59;;;;;;;7.57;2.35;;;15.90;99.90;;;;;;5048260;28;20078;-64
2022/07/05 03:49:25;;;;;;;3.92;2.47;;;15.90;99.90;;;;;;5051249;28;20025;-64
2022/07/05 03:51:50;;;;;;;6.55;3.08;;;15.90;99.90;;;;;;5051910;28;20025;-64
2022/07/05 03:54:16;;;;;;;10.77;3.58;;;16.00;99.90;;;;;;5050011;28;20529;-63
2022/07/05 03:56:42;;;;;;;10.27;3.50;;;16.10;99.90;;;;;;5052040;28;20052;-64
2022/07/05 03:59:07;;;;;;;10.70;4.05;;;16.10;99.90;;;;;;5051343;28;20098;-64
2022/07/05 04:01:33;;;;;;;7.38;3.03;;;16.10;99.90;;;;;;5051662;28;20029;-67
2022/07/05 04:03:58;;;;;;;9.73;3.25;;;16.10;99.90;;;;;;5051792;28;20086;-66
2022/07/05 04:06:24;;;;;;;7.22;3.08;;;16.10;99.90;;;;;;5051419;28;20451;-67
2022/07/05 04:08:50;;;;;;;6.13;2.10;;;16.20;99.90;;;;;;5051545;28;20025;-64
2022/07/05 04:11:16;;;;;;;6.93;2.88;;;16.20;99.90;;;;;;5051371;28;20025;-64
2022/07/05 04:13:42;;;;;;;5.03;2.25;;;16.30;99.90;;;;;;5052010;28;20099;-65
2022/07/05 04:16:08;;;;;;;7.25;2.25;;;16.40;99.90;;;;;;5053344;28;20048;-65
2022/07/05 04:18:34;;;;;;;6.15;2.30;;;16.30;99.90;;;;;;5053459;28;20027;-62
2022/07/05 04:21:00;;;;;;;7.28;2.50;;;16.40;99.90;;;;;;5053186;28;20462;-67
2022/07/05 04:23:26;;;;;;;5.93;2.70;;;16.40;99.90;;;;;;5053399;28;20180;-64
2022/07/05 04:25:51;;;;;;;4.78;2.28;;;16.50;99.90;;;;;;5053111;28;20359;-63
2022/07/05 04:28:17;;;;;;;4.60;2.13;;;16.50;99.90;;;;;;5052340;28;20375;-65
2022/07/05 04:30:43;;;;;;;6.40;2.10;;;16.60;99.90;;;;;;5053191;28;20055;-63
2022/07/05 04:33:08;;;;;;;5.88;2.50;;;16.70;99.90;;;;;;5053187;28;20044;-65
2022/07/05 04:35:34;;;;;;;5.45;2.70;;;16.70;99.90;;;;;;5052842;28;20032;-64
2022/07/05 04:37:59;;;;;;;4.32;2.10;;;16.80;99.90;;;;;;5052704;28;20017;-63
2022/07/05 04:40:25;;;;;;;5.07;2.35;;;16.90;99.90;;;;;;5051448;28;20398;-66
2022/07/05 04:42:51;;;;;;;6.80;2.40;;;16.90;99.90;;;;;;5052685;28;20021;-64
2022/07/05 04:45:16;;;;;;;7.35;2.65;;;16.90;99.90;;;;;;5053309;28;20377;-67
2022/07/05 04:47:42;;;;;;;4.80;1.90;;;17.00;99.90;;;;;;5053222;28;20370;-66
2022/07/05 04:50:08;;;;;;;7.30;2.50;;;17.00;99.90;;;;;;5053751;28;20024;-66
2022/07/05 04:52:34;;;;;;;8.90;2.10;;;16.90;99.90;;;;;;5052208;28;20044;-67
2022/07/05 04:54:59;;;;;;;5.95;2.08;;;16.90;99.90;;;;;;5052899;28;20036;-65
2022/07/05 04:57:25;;;;;;;3.95;2.25;;;16.80;99.90;;;;;;5053103;28;20036;-63
2022/07/05 04:59:51;;;;;;;3.67;2.15;;;16.80;99.90;;;;;;5051465;28;20047;-65
2022/07/05 05:02:16;;;;;;;7.50;2.75;;;16.80;99.90;;;;;;5052127;28;20025;-64
2022/07/05 05:04:42;;;;;;;6.15;2.38;;;16.80;99.90;;;;;;5053182;28;20067;-64
2022/07/05 05:07:08;;;;;;;5.32;1.83;;;16.80;99.90;;;;;;5054344;28;20037;-68
2022/07/05 05:09:33;;;;;;;6.18;2.25;;;16.90;99.90;;;;;;5054227;28;20127;-64
2022/07/05 05:11:59;;;;;;;16.92;7.20;;;16.90;99.90;;;;;;5054227;28;20021;-65
2022/07/05 05:14:24;;;;;;;11.73;4.35;;;17.00;99.90;;;;;;5053350;28;20399;-64
2022/07/05 05:16:50;;;;;;;10.90;3.75;;;17.10;99.90;;;;;;5053901;28;20021;-63
2022/07/05 05:19:15;;;;;;;10.50;3.92;;;17.30;99.90;;;;;;5053892;28;20100;-65
2022/07/05 05:21:41;;;;;;;9.48;3.25;;;17.40;99.90;;;;;;5052868;28;20027;-65
2022/07/05 05:24:07;;;;;;;4.00;1.80;;;17.60;99.90;;;;;;5050807;28;20051;-64
2022/07/05 05:26:33;;;;;;;4.32;1.13;;;18.00;99.90;;;;;;5053278;28;20065;-67
2022/07/05 05:28:59;;;;;;;6.55;2.10;;;18.40;99.90;;;;;;5052313;28;20079;-65
2022/07/05 05:31:25;;;;;;;8.55;2.30;;;18.90;99.90;;;;;;5053983;28;20021;-66
2022/07/05 05:33:51;;;;;;;9.35;2.58;;;19.20;99.90;;;;;;5053610;28;20051;-65
2022/07/05 05:36:16;;;;;;;5.80;2.03;;;19.40;99.90;;;;;;5052241;28;20025;-66
2022/07/05 05:38:42;;;;;;;8.63;2.03;;;19.70;99.90;;;;;;5051966;28;20067;-67
2022/07/05 05:41:07;;;;;;;4.85;1.73;;;19.90;99.90;;;;;;5054042;28;20021;-69
2022/07/05 05:43:33;;;;;;;5.13;2.15;;;20.10;99.90;;;;;;5053256;28;20017;-65
2022/07/05 05:45:59;;;;;;;6.45;1.95;;;20.20;99.90;;;;;;5052161;28;20040;-66
2022/07/05 05:48:24;;;;;;;3.92;1.23;;;20.30;99.80;;;;;;5036529;28;20037;-64
2022/07/05 05:50:51;;;;;;;4.65;1.50;;;20.30;99.50;;;;;;5033980;28;20017;-64
2022/07/05 05:53:17;;;;;;;3.45;1.73;;;20.40;99.20;;;;;;5051982;28;20097;-65
2022/07/05 05:55:44;;;;;;;7.65;1.77;;;20.50;99.00;;;;;;5049508;28;20509;-64
2022/07/05 05:58:19;;;;;;;3.95;1.50;;;20.60;98.90;;;;;;5052550;28;20020;-64
2022/07/05 06:00:48;;;;;;;6.22;1.92;;;20.90;98.60;;;;;;5053361;28;20013;-65
2022/07/05 06:03:15;;;;;;;6.05;2.30;;;21.20;98.00;;;;;;5053796;28;20024;-63
2022/07/05 06:05:40;;;;;;;4.57;1.58;;;21.30;97.70;;;;;;5052766;28;20111;-66
2022/07/05 06:08:06;;;;;;;3.90;1.98;;;21.60;97.50;;;;;;5053236;28;20573;-64
2022/07/05 06:10:33;;;;;;;3.55;1.35;;;21.90;96.90;;;;;;5053366;28;20017;-67
2022/07/05 06:13:04;;;;;;;6.90;1.63;;;22.10;96.60;;;;;;5050567;28;20103;-64
2022/07/05 06:15:30;;;;;;;6.70;1.90;;;22.30;96.20;;;;;;5052892;28;20043;-65
2022/07/05 06:17:56;;;;;;;5.70;1.85;;;22.40;96.00;;;;;;5053196;28;20045;-68
2022/07/05 06:20:23;;;;;;;2.63;1.30;;;22.50;96.10;;;;;;5053308;28;20021;-65
2022/07/05 06:22:50;;;;;;;4.05;1.80;;;22.70;96.00;;;;;;5052806;28;20013;-65
2022/07/05 06:25:16;;;;;;;4.72;1.30;;;23.20;95.70;;;;;;5052814;28;20017;-64
2022/07/05 06:27:47;;;;;;;3.42;1.40;;;23.70;95.10;;;;;;5051936;28;20067;-64
2022/07/05 06:30:15;;;;;;;6.05;1.73;;;23.70;94.80;;;;;;5051723;28;20458;-64
2022/07/05 06:32:42;;;;;;;3.95;1.40;;;23.60;94.80;;;;;;5053139;28;20041;-67
2022/07/05 06:35:08;;;;;;;3.80;1.27;;;23.50;94.70;;;;;;5052252;28;20455;-64
2022/07/05 06:37:48;;;;;;;3.63;1.30;;;23.50;94.60;;;;;;5052896;28;20032;-64
2022/07/05 06:40:18;;;;;;;5.45;1.63;;;23.60;94.40;;;;;;5051857;28;20378;-67
2022/07/05 06:42:44;;;;;;;4.05;1.30;;;23.90;94.20;;;;;;5052284;28;20027;-64
2022/07/05 06:45:10;;;;;;;4.10;1.48;;;24.00;93.40;;;;;;5051457;28;20107;-64
2022/07/05 06:47:37;;;;;;;5.40;1.20;;;23.90;93.40;;;;;;5052359;28;20020;-63
2022/07/05 06:50:04;;;;;;;4.72;1.10;;;24.50;93.10;;;;;;5052813;28;20016;-65
2022/07/05 06:52:31;;;;;;;4.88;1.13;;;25.20;92.10;;;;;;5052818;28;20025;-64
2022/07/05 06:54:57;;;;;;;4.80;1.00;;;25.30;91.60;;;;;;5051236;28;20120;-67
2022/07/05 06:57:23;;;;;;;7.78;1.23;;;25.90;90.80;;;;;;5064822;28;20024;-64
2022/07/05 06:59:50;;;;;;;5.50;1.17;;;26.80;88.80;;;;;;5052501;28;20025;-64
2022/07/05 07:02:16;;;;;;;3.63;0.80;;;27.60;85.90;;;;;;5051861;28;20343;-64
2022/07/05 07:04:41;;;;;;;1.30;0.60;;;28.40;83.00;;;;;;5052319;28;20077;-68
2022/07/05 07:09:51;;;;;;;4.75;1.08;;;29.50;79.60;;;;;;5051672;28;20024;-65
2022/07/05 07:12:17;;;;;;;1.45;0.75;;;30.10;78.00;;;;;;5052174;28;20374;-69
2022/07/05 07:14:43;;;;;;;4.00;1.00;;;30.50;76.10;;;;;;5051563;28;20036;-64
2022/07/05 07:17:08;;;;;;;4.25;1.10;;;30.50;75.10;;;;;;5051636;28;20104;-64
2022/07/05 07:19:34;;;;;;;2.38;0.75;;;30.00;75.50;;;;;;5052454;28;20175;-65
2022/07/05 07:22:00;;;;;;;3.25;0.80;;;29.40;75.90;;;;;;5052371;28;20043;-64
2022/07/05 07:24:25;;;;;;;4.10;0.60;;;29.00;76.40;;;;;;5052496;28;20021;-64
2022/07/05 07:27:03;;;;;;;6.72;0.85;;;28.90;76.80;;;;;;5051494;28;20037;-67
2022/07/05 07:29:30;;;;;;;5.95;0.98;;;29.20;75.80;;;;;;5051558;28;20056;-66
2022/07/05 07:31:56;;;;;;;3.58;0.65;;;29.50;75.70;;;;;;5051117;28;20025;-66
2022/07/05 07:34:22;;;;;;;4.88;0.85;;;29.40;75.00;;;;;;5052133;28;20045;-65
2022/07/05 07:36:49;;;;;;;2.30;0.75;;;29.10;74.40;;;;;;5050842;28;20378;-67
2022/07/05 07:39:14;;;;;;;3.10;0.85;;;29.20;74.70;;;;;;5051990;28;20048;-66
2022/07/05 07:41:40;;;;;;;3.55;0.98;;;29.40;74.70;;;;;;5052134;28;20079;-64
2022/07/05 07:44:06;;;;;;;3.50;0.60;;;30.00;74.00;;;;;;5051941;28;20025;-64
2022/07/05 07:46:31;;;;;;;4.88;1.00;;;30.20;73.50;;;;;;5051344;28;20119;-64
2022/07/05 07:48:57;;;;;;;3.30;0.90;;;30.30;72.40;;;;;;5036337;28;20041;-64
2022/07/05 07:51:23;;;;;;;4.30;1.00;;;30.30;72.40;;;;;;5054515;28;20459;-64
2022/07/05 07:53:49;;;;;;;4.82;0.90;;;30.20;71.80;;;;;;5055451;28;20036;-67
2022/07/05 07:56:14;;;;;;;3.10;0.90;;;30.00;71.00;;;;;;5055654;28;20032;-65
2022/07/05 07:58:40;;;;;;;1.30;0.70;;;29.80;71.50;;;;;;5055541;28;20029;-65
2022/07/05 08:01:10;;;;;;;3.10;1.10;;;29.50;71.50;;;;;;5050456;28;20546;-64
2022/07/05 08:03:37;;;;;;;5.50;1.20;;;29.20;72.40;;;;;;5055131;28;20104;-67
2022/07/05 08:06:02;;;;;;;4.03;0.88;;;28.80;73.50;;;;;;5055617;28;20036;-66
2022/07/05 08:08:28;;;;;;;4.10;1.08;;;28.50;74.70;;;;;;5054883;28;20366;-67
2022/07/05 08:10:53;;;;;;;3.15;1.08;;;28.20;75.50;;;;;;5055041;28;20024;-65
2022/07/05 08:13:19;;;;;;;4.78;1.15;;;28.00;76.00;;;;;;5055598;28;20036;-69
2022/07/05 08:15:44;;;;;;;6.57;1.10;;;27.90;76.40;;;;;;5054676;28;20025;-65
2022/07/05 08:23:38;;;;;;;6.07;1.70;;;27.80;77.00;;;;;;5035478;28;20037;-64
2022/07/05 08:26:04;;;;;;;5.20;1.25;;;27.70;77.10;;;;;;5039874;28;20033;-65
2022/07/05 08:28:29;;;;;;;4.03;1.33;;;27.90;77.20;;;;;;5054471;28;20096;-65
2022/07/05 08:30:55;;;;;;;5.45;1.40;;;28.40;76.20;;;;;;5053978;28;20105;-65
2022/07/05 08:33:21;;;;;;;7.25;1.67;;;28.50;76.00;;;;;;5054783;28;20437;-65
2022/07/05 08:35:46;;;;;;;4.05;1.70;;;29.10;75.40;;;;;;5054307;28;20486;-65
2022/07/05 08:38:12;;;;;;;5.65;1.02;;;29.50;74.20;;;;;;5055212;28;20025;-66
2022/07/05 08:40:43;;;;;;;6.15;1.60;;;30.10;73.20;;;;;;5054655;28;20465;-65
2022/07/05 08:43:10;;;;;;;4.32;1.30;;;30.30;72.10;;;;;;5054627;28;20017;-67
2022/07/05 08:45:38;;;;;;;7.05;1.50;;;30.60;71.60;;;;;;5053223;28;20134;-67
2022/07/05 08:48:06;;;;;;;5.93;1.20;;;31.30;70.70;;;;;;5034822;28;20029;-66
2022/07/05 08:50:33;;;;;;;8.13;1.40;;;31.80;69.40;;;;;;5052387;28;20056;-65
2022/07/05 08:52:59;;;;;;;3.00;1.27;;;31.30;69.40;;;;;;5038471;28;20448;-65
2022/07/05 08:55:26;;;;;;;4.30;1.60;;;31.10;69.90;;;;;;5050844;28;20025;-68
2022/07/05 08:57:52;;;;;;;6.20;1.90;;;31.50;68.50;;;;;;5054325;28;20024;-65
2022/07/05 09:00:17;;;;;;;7.55;1.25;;;31.40;68.50;;;;;;5052911;28;20021;-68
2022/07/05 09:02:43;;;;;;;6.07;1.10;;;31.70;68.50;;;;;;5054587;28;20096;-65
2022/07/05 09:05:13;;;;;;;7.45;1.20;;;32.00;68.00;;;;;;5053323;28;20021;-66
2022/07/05 09:07:44;;;;;;;8.13;1.95;;;32.20;67.40;;;;;;5055055;28;20041;-65
2022/07/05 09:10:12;;;;;;;7.57;1.55;;;31.70;67.80;;;;;;5053950;28;20067;-65
2022/07/05 09:12:38;;;;;;;4.85;1.00;;;31.90;67.40;;;;;;5054388;28;20021;-67
2022/07/05 09:15:05;;;;;;;7.55;1.17;;;32.50;66.70;;;;;;5054940;28;20032;-65
2022/07/05 09:17:31;;;;;;;3.13;0.85;;;32.90;64.80;;;;;;5054378;28;20454;-70
2022/07/05 09:20:14;;;;;;;3.28;0.90;;;33.30;64.00;;;;;;5054819;28;20036;-64
2022/07/05 09:22:53;;;;;;;5.55;1.25;;;33.50;63.00;;;;;;5054805;28;20032;-65
2022/07/05 09:25:28;;;;;;;6.47;1.30;;;33.50;61.80;;;;;;5053360;28;20025;-65
2022/07/05 09:28:15;;;;;;;8.45;1.80;;;33.00;62.90;;;;;;5053149;28;20029;-65
2022/07/05 09:30:41;;;;;;;6.68;1.50;;;32.90;63.10;;;;;;5051531;28;20443;-65
2022/07/05 09:33:15;;;;;;;5.95;1.23;;;33.10;62.80;;;;;;5053083;28;20041;-65
2022/07/05 09:35:42;;;;;;;8.23;2.10;;;33.80;62.30;;;;;;5051656;28;20019;-65
2022/07/05 09:38:19;;;;;;;4.10;1.33;;;34.40;60.00;;;;;;5053955;28;20041;-68
2022/07/05 09:40:50;;;;;;;3.13;0.93;;;34.30;59.90;;;;;;5053323;28;20021;-68
2022/07/05 09:43:18;;;;;;;6.05;1.45;;;34.00;60.00;;;;;;5050816;28;20028;-65
2022/07/05 09:45:57;;;;;;;6.40;1.75;;;33.60;60.10;;;;;;5053029;28;20131;-66
2022/07/05 09:48:23;;;;;;;7.18;1.20;;;33.60;60.00;;;;;;5051186;28;20020;-65
2022/07/05 09:50:51;;;;;;;6.57;0.90;;;33.90;59.70;;;;;;5052833;28;20021;-64
2022/07/05 09:53:17;;;;;;;1.83;0.90;;;34.20;58.30;;;;;;5052844;28;20017;-65
2022/07/05 09:56:03;;;;;;;5.25;1.95;;;34.60;57.30;;;;;;5052659;28;20013;-64
2022/07/05 09:58:29;;;;;;;7.57;1.70;;;34.70;56.90;;;;;;5051292;28;20039;-66
2022/07/05 10:00:55;;;;;;;4.57;1.25;;;34.90;57.50;;;;;;5052620;28;20035;-65
2022/07/05 10:03:21;;;;;;;2.63;0.88;;;35.30;57.10;;;;;;5052837;28;20017;-65
2022/07/05 10:05:46;;;;;;;1.88;1.05;;;35.20;57.30;;;;;;5052376;28;20462;-64
2022/07/05 10:08:13;;;;;;;4.22;1.50;;;35.30;57.00;;;;;;5052499;28;20024;-66
2022/07/05 10:10:41;;;;;;;4.10;1.27;;;35.50;56.90;;;;;;5052032;28;20078;-64
2022/07/05 10:13:06;;;;;;;4.70;1.77;;;35.60;56.60;;;;;;5051134;28;20017;-66
2022/07/05 10:15:34;;;;;;;4.68;0.75;;;35.50;56.10;;;;;;5052323;28;20063;-65
2022/07/05 10:18:04;;;;;;;2.45;0.88;;;35.50;56.50;;;;;;5052358;28;20029;-68
2022/07/05 10:20:43;;;;;;;4.32;1.25;;;35.00;56.50;;;;;;5052459;28;20386;-68
2022/07/05 10:23:13;;;;;;;3.75;1.30;;;34.70;56.60;;;;;;5053808;28;20116;-65
2022/07/05 10:25:42;;;;;;;5.93;0.85;;;34.70;56.80;;;;;;5053160;28;20024;-65
2022/07/05 10:28:08;;;;;;;4.78;1.00;;;35.10;57.10;;;;;;5054619;28;20078;-64
2022/07/05 10:30:35;;;;;;;2.63;0.70;;;35.30;57.00;;;;;;5049531;28;20406;-66
2022/07/05 10:33:05;;;;;;;3.70;1.15;;;35.00;56.90;;;;;;5051676;28;20041;-65
2022/07/05 10:35:31;;;;;;;7.77;1.10;;;35.10;57.10;;;;;;5051661;28;20412;-64
2022/07/05 10:37:59;;;;;;;5.68;1.08;;;35.40;57.30;;;;;;5051030;28;20788;-66
2022/07/05 10:40:26;;;;;;;3.88;1.20;;;35.80;56.70;;;;;;5051035;28;20068;-64
2022/07/05 10:42:57;;;;;;;4.43;0.80;;;35.50;56.60;;;;;;5052709;28;20017;-65
2022/07/05 10:45:26;;;;;;;;;;;35.50;57.10;;;;;;5051208;28;20509;-64
2022/07/05 10:48:10;;;;;;;9.60;1.80;;;35.10;56.80;;;;;;5051158;28;19963;-64
2022/07/05 10:50:52;;;;;;;2.70;1.15;;;34.10;57.10;;;;;;5052981;28;20028;-66
2022/07/05 10:53:49;;;;;;;4.40;1.30;;;33.30;56.50;;;;;;5063280;28;20013;-66
2022/07/05 10:56:15;;;;;;;5.25;1.15;;;33.60;55.90;;;;;;5065633;28;20029;-65
2022/07/05 10:58:42;;;;;;;7.20;1.50;;;34.10;56.60;;;;;;5060816;28;20020;-64
2022/07/05 11:01:23;;;;;;;2.50;0.70;;;34.10;56.60;;;;;;5052449;28;20025;-64
2022/07/05 11:04:01;;;;;;;4.72;1.00;;;33.60;55.80;;;;;;5032737;28;20461;-68
2022/07/05 11:06:41;;;;;;;1.40;0.77;;;33.70;56.00;;;;;;5052575;28;20029;-65
2022/07/05 11:09:09;;;;;;;3.42;0.75;;;34.10;55.50;;;;;;5053099;28;20107;-67
2022/07/05 11:11:40;;;;;;;6.00;2.10;;;34.70;55.40;;;;;;5064137;28;20407;-66
2022/07/05 11:14:21;;;;;;;3.15;1.58;;;35.00;55.10;;;;;;5052934;28;20017;-68
2022/07/05 11:17:11;;;;;;;3.90;1.10;;;35.20;55.40;;;;;;5052597;28;20422;-64
2022/07/05 11:20:03;;;;;;;3.72;1.95;;;35.70;54.10;;;;;;5046530;28;20029;-66
2022/07/05 11:22:29;;;;;;;3.25;1.42;;;35.80;53.80;;;;;;5053381;28;20029;-65
2022/07/05 11:24:59;;;;;;;5.57;1.98;;;36.20;54.30;;;;;;5056422;28;20044;-67
2022/07/05 11:27:25;;;;;;;5.93;1.33;;;36.40;53.40;;;;;;5056572;28;20028;-67
2022/07/05 11:29:52;;;;;;;5.95;1.50;;;36.60;53.70;;;;;;5061634;28;20017;-66
2022/07/05 11:32:30;;;;;;;2.83;1.27;;;36.90;52.70;;;;;;5056910;28;20025;-67
2022/07/05 11:35:14;;;;;;;3.15;1.35;;;36.80;52.80;;;;;;5056587;28;20033;-66
2022/07/05 11:38:01;;;;;;;5.45;0.90;;;36.80;52.80;;;;;;5054803;28;20029;-64
2022/07/05 11:40:29;;;;;;;5.15;1.27;;;36.60;53.40;;;;;;5055383;28;20037;-65
2022/07/05 11:42:55;;;;;;;4.68;1.10;;;36.80;53.90;;;;;;5055737;28;20020;-63
2022/07/05 11:45:21;;;;;;;3.63;1.13;;;37.20;53.40;;;;;;5054423;28;20028;-64
2022/07/05 11:47:46;;;;;;;2.00;0.88;;;37.60;52.60;;;;;;5052936;28;20032;-65
2022/07/05 11:50:14;;;;;;;6.88;1.17;;;37.50;51.90;;;;;;5055900;28;20048;-66
2022/07/05 11:52:40;;;;;;;4.65;1.30;;;37.60;53.00;;;;;;5055922;28;20347;-64
2022/07/05 11:55:08;;;;;;;3.63;1.05;;;37.70;52.90;;;;;;5056253;28;20031;-65
2022/07/05 11:57:34;;;;;;;5.28;1.10;;;37.90;52.90;;;;;;5055563;28;20108;-68
2022/07/05 12:00:00;;;;;;;5.30;1.40;;;38.30;52.40;;;;;;5055433;28;20025;-68
2022/07/05 12:02:25;;;;;;;6.07;1.38;;;37.90;52.60;;;;;;5054307;28;20024;-65
2022/07/05 12:04:54;;;;;;;2.42;1.23;;;37.60;52.80;;;;;;5046466;28;20021;-65
2022/07/05 12:07:30;;;;;;;3.78;1.48;;;37.90;52.70;;;;;;5036175;28;20029;-65
2022/07/05 12:12:44;;;;;;;8.32;3.08;;;37.50;52.80;;;;;;5049459;28;20458;-66
2022/07/05 12:15:18;;;;;;;7.25;3.05;;;36.40;53.70;;;;;;5054391;28;20025;-65
2022/07/05 12:17:46;;;;;;;7.07;2.10;;;35.10;54.50;;;;;;5051765;28;20473;-66
2022/07/05 12:20:15;;;;;;;7.72;3.05;;;34.60;54.70;;;;;;5038727;28;20037;-68
2022/07/05 12:22:42;;;;;;;4.55;2.47;;;33.90;55.20;;;;;;5046630;28;20029;-65
2022/07/05 12:25:13;;;;;;;6.65;2.45;;;33.50;56.00;;;;;;5040297;28;20408;-65
2022/07/05 12:27:41;;;;;;;4.80;1.90;;;33.60;56.50;;;;;;5055170;28;20039;-67
2022/07/05 12:30:09;;;;;;;4.93;1.27;;;33.80;57.10;;;;;;5039901;28;20053;-64
2022/07/05 12:33:12;;;;;;;4.63;1.73;;;34.50;56.30;;;;;;5052373;28;20045;-64
2022/07/05 12:35:45;;;;;;;3.35;1.13;;;34.40;56.10;;;;;;5055165;28;20116;-66
2022/07/05 12:38:18;;;;;;;5.22;1.58;;;33.70;56.80;;;;;;5042001;28;20108;-64
2022/07/05 12:40:46;;;;;;;4.85;1.20;;;33.40;58.00;;;;;;5052253;28;20108;-66
2022/07/05 12:43:15;;;;;;;4.15;1.30;;;33.20;58.10;;;;;;5052914;28;20021;-64
2022/07/05 12:45:43;;;;;;;4.78;1.15;;;32.80;58.30;;;;;;5054784;28;20485;-65
2022/07/05 12:48:10;;;;;;;4.60;1.35;;;32.50;58.10;;;;;;5055108;28;20378;-65
2022/07/05 12:50:45;;;;;;;3.50;0.85;;;32.20;57.80;;;;;;5053939;28;20435;-65
2022/07/05 12:58:53;;;;;;;4.85;1.17;;;31.00;59.60;;;;;;5064855;28;20048;-68
2022/07/05 13:01:27;;;;;;;2.63;0.98;;;30.40;61.30;;;;;;5054957;28;20025;-64
2022/07/05 13:04:11;;;;;;;3.75;0.93;;;30.00;61.90;;;;;;5055334;28;20028;-65